Latest Weather Observations for Amberley

IDQ60801

Issued at 6:12 pm EST Tuesday 23 April 2019 (issued every 10 minutes, with the page automatically refreshed every 10 minutes)

About weather observations | Map of weather stations | Latest weather observations for QLD | Other Formats
Station Details ID: 040004 Name: AMBERLEY AMO Lat: -27.63 Lon: 152.71 Height: 24.2 m
Data from the previous 72 hours. | See also: Recent months at Amberley
Date/Time
EST
Temp
°C
App
Temp
°C
Dew
Point
°C
Rel
Hum
%
Delta-T
°C
Wind Press
QNH
hPa
Press
MSL
hPa
Rain since
9am
mm
Dir  Spd
km/h
Gust
km/h
Spd
kts
Gust
kts
23/06:00pm 22.5 20.8 14.6 61 4.6 ESE 17 26 9 14 1022.1 1022.0 0.0
23/05:30pm 23.1 21.4 14.7 59 5.0 E 17 26 9 14 1021.9 1021.8 0.0
23/05:00pm 23.3 21.5 15.9 63 4.5 E 20 30 11 16 1021.5 1021.4 0.0
23/04:30pm 23.8 21.4 16.3 63 4.6 E 24 33 13 18 1021.1 1021.0 0.0
23/04:00pm 24.3 22.6 16.3 61 4.9 E 20 30 11 16 1021.1 1021.0 0.0
23/03:30pm 24.6 22.5 16.3 60 5.1 E 22 30 12 16 1020.9 1020.8 0.0
23/03:00pm 25.1 23.2 16.8 60 5.1 ESE 22 30 12 16 1020.8 1020.7 0.0
23/02:30pm 24.8 22.2 16.8 61 4.9 E 26 35 14 19 1020.8 1020.7 0.0
23/02:00pm 26.0 24.5 17.6 60 5.3 E 22 32 12 17 1020.8 1020.7 0.0
23/01:30pm 25.8 24.1 17.2 59 5.4 E 22 32 12 17 1020.9 1020.8 0.0
23/01:00pm 25.9 24.6 17.3 59 5.4 ESE 20 33 11 18 1021.1 1021.0 0.0
23/12:30pm 24.5 22.8 17.2 63 4.5 E 22 32 12 17 1021.8 1021.7 0.0
23/12:00pm 24.6 22.4 16.8 62 4.8 E 24 37 13 20 1022.1 1022.0 0.0
23/11:30am 24.8 23.4 17.0 62 4.8 ESE 20 32 11 17 1022.7 1022.6 0.0
23/11:00am 24.0 22.3 16.3 62 4.7 E 20 30 11 16 1023.1 1023.0 0.0
23/10:30am 23.9 21.4 16.2 62 4.7 ESE 24 37 13 20 1023.3 1023.2 0.0
23/10:00am 23.7 21.6 16.2 63 4.5 ESE 22 35 12 19 1023.5 1023.4 0.0
23/09:30am 23.3 22.5 17.1 68 3.8 SE 17 26 9 14 1023.7 1023.6 0.0
23/09:00am 22.3 22.4 17.4 74 3.0 S 13 15 7 8 1023.7 1023.6 0.0
23/08:30am 21.1 21.4 17.1 78 2.4 S 11 15 6 8 1023.8 1023.7 0.0
23/08:00am 19.5 19.7 16.7 84 1.7 SSW 11 13 6 7 1023.6 1023.5 0.0
23/07:30am 18.5 19.1 16.7 89 1.1 SSW 9 11 5 6 1023.6 1023.5 0.0
23/07:00am 17.3 18.0 16.2 93 0.6 S 7 9 4 5 1023.4 1023.3 0.0
23/06:30am 16.8 17.0 15.8 94 0.6 S 9 9 5 5 1023.1 1023.0 0.0
23/06:00am 16.7 16.5 15.6 93 0.6 S 11 11 6 6 1022.7 1022.6 0.0
23/05:30am 17.2 19.2 15.9 92 0.8 CALM 0 0 0 0 1022.3 1022.2 0.0
23/05:00am 17.6 19.8 16.5 93 0.7 CALM 0 0 0 0 1022.1 1022.0 0.0
23/04:30am 17.6 19.8 16.5 93 0.7 CALM 0 0 0 0 1021.6 1021.5 0.0
23/04:00am 17.9 19.5 16.9 94 0.6 S 4 7 2 4 1021.7 1021.6 0.0
23/03:30am 17.7 19.2 16.6 93 0.7 S 4 7 2 4 1021.4 1021.3 0.0
23/03:00am 18.0 19.0 16.9 93 0.7 S 7 9 4 5 1021.4 1021.3 0.0
23/02:30am 18.1 18.7 16.8 92 0.8 S 9 11 5 6 1021.6 1021.5 0.0
23/02:00am 18.5 18.9 17.3 93 0.7 S 11 13 6 7 1021.7 1021.6 0.0
23/01:30am 18.3 19.0 17.0 92 0.8 S 9 11 5 6 1022.0 1021.9 0.0
23/01:00am 18.8 19.6 17.3 91 0.9 SSW 9 9 5 5 1022.5 1022.4 0.0
23/12:30am 19.3 21.3 17.8 91 0.9 SSW 4 9 2 5 1022.5 1022.4 0.0
23/12:00am 19.0 19.8 17.3 90 1.0 S 9 11 5 6 1022.7 1022.6 0.0
 
Date/Time
EST
Temp
°C
App
Temp
°C
Dew
Point
°C
Rel
Hum
%
Delta-T
°C
Wind Press
QNH
hPa
Press
MSL
hPa
Rain since
9am
mm
Dir  Spd
km/h
Gust
km/h
Spd
kts
Gust
kts
22/11:30pm 19.9 21.0 18.0 89 1.2 SSW 9 11 5 6 1022.5 1022.4 0.0
22/11:00pm 20.0 22.2 18.3 90 1.1 SSE 4 9 2 5 1022.7 1022.6 0.0
22/10:30pm 19.9 20.6 18.0 89 1.2 SSE 11 17 6 9 1022.6 1022.5 0.0
22/10:00pm 20.2 20.6 18.1 88 1.3 SSE 13 17 7 9 1022.8 1022.7 0.0
22/09:30pm 20.1 20.9 18.2 89 1.2 S 11 15 6 8 1022.8 1022.7 0.0
22/09:00pm 20.6 21.3 18.0 85 1.6 SSE 11 13 6 7 1022.6 1022.5 0.0
22/08:30pm 20.6 23.0 18.0 85 1.6 NE 2 7 1 4 1022.4 1022.3 0.0
22/08:00pm 20.9 22.4 17.5 81 2.1 ENE 6 9 3 5 1022.2 1022.1 0.0
22/07:30pm 21.1 22.4 17.1 78 2.4 E 6 7 3 4 1021.8 1021.7 0.0
22/07:00pm 21.4 22.1 17.0 76 2.7 ESE 9 13 5 7 1021.6 1021.5 0.0
22/06:30pm 21.8 20.8 16.7 73 3.1 E 17 26 9 14 1021.2 1021.1 0.0
22/06:00pm 22.1 21.2 16.8 72 3.2 E 17 20 9 11 1020.7 1020.6 0.0
22/05:30pm 22.2 21.9 17.3 74 3.0 E 15 26 8 14 1020.4 1020.3 0.0
22/05:00pm 23.1 22.8 17.3 70 3.6 E 15 26 8 14 1020.2 1020.1 0.0
22/04:30pm 23.3 23.1 17.7 71 3.5 E 15 20 8 11 1020.0 1019.9 0.0
22/04:00pm 23.5 22.0 17.7 70 3.6 E 22 30 12 16 1019.7 1019.6 0.0
22/03:30pm 23.8 21.7 18.0 70 3.6 E 26 33 14 18 1019.6 1019.5 0.0
22/03:00pm 22.9 21.2 18.9 78 2.5 ENE 26 35 14 19 1019.6 1019.5 0.0
22/02:30pm 25.0 25.1 19.1 70 3.8 ENE 17 28 9 15 1019.3 1019.2 0.0
22/02:00pm 23.2 21.5 18.1 73 3.2 ENE 24 33 13 18 1019.5 1019.4 0.0
22/01:30pm 25.6 24.4 17.5 61 5.1 ESE 20 30 11 16 1019.3 1019.2 0.0
22/01:00pm 25.6 24.0 16.5 57 5.6 E 20 28 11 15 1019.5 1019.4 0.0
22/12:30pm 26.1 25.0 17.2 58 5.6 ESE 19 28 10 15 1020.0 1019.9 0.0
22/12:00pm 24.7 22.9 16.9 62 4.8 E 22 32 12 17 1020.4 1020.3 0.0
22/11:30am 24.7 22.7 16.4 60 5.1 E 22 32 12 17 1020.6 1020.5 0.0
22/11:00am 24.2 22.5 16.2 61 4.9 E 20 28 11 15 1021.1 1021.0 0.0
22/10:30am 24.6 23.7 16.8 62 4.8 ESE 17 26 9 14 1021.3 1021.2 0.0
22/10:00am 23.8 21.3 16.1 62 4.7 ESE 24 35 13 19 1021.3 1021.2 0.0
22/09:30am 23.5 22.7 17.0 67 4.0 SE 17 26 9 14 1021.4 1021.3 0.0
22/09:00am 22.3 23.1 18.1 77 2.6 SSW 11 13 6 7 1021.8 1021.7 1.8
22/08:30am 20.7 21.8 17.1 80 2.2 SSW 7 9 4 5 1021.6 1021.5 1.8
22/08:00am 19.7 20.3 16.9 84 1.7 SSW 9 11 5 6 1021.6 1021.5 1.8
22/07:30am 18.4 18.9 16.6 89 1.1 SSW 9 13 5 7 1021.3 1021.2 1.8
22/07:00am 16.7 18.7 16.1 96 0.4 CALM 0 0 0 0 1020.8 1020.7 1.8
22/06:30am 16.3 18.0 15.3 94 0.6 CALM 0 0 0 0 1020.6 1020.5 1.8
22/06:00am 16.5 18.3 15.4 93 0.6 CALM 0 0 0 0 1020.2 1020.1 1.8
22/05:30am 17.0 17.5 15.5 91 0.9 SSW 7 9 4 5 1020.2 1020.1 1.8
22/05:00am 17.5 17.8 16.0 91 0.9 SSW 9 13 5 7 1020.2 1020.1 1.8
22/04:30am 17.9 18.5 16.8 93 0.7 SSW 9 11 5 6 1020.0 1019.9 1.8
22/04:00am 17.7 18.4 17.1 96 0.4 WNW 9 11 5 6 1020.0 1019.9 1.8
22/03:30am 17.7 19.8 17.1 96 0.4 SSW 2 9 1 5 1019.9 1019.8 1.8
22/03:00am 17.3 18.1 16.3 94 0.6 E 7 9 4 5 1019.7 1019.6 1.8
22/02:30am 18.1 19.4 17.1 94 0.6 E 6 9 3 5 1019.9 1019.8 1.8
22/02:00am 18.1 20.6 17.3 95 0.5 CALM 0 2 0 1 1020.3 1020.2 1.8
22/01:30am 18.0 20.4 17.0 94 0.6 CALM 0 0 0 0 1020.8 1020.7 1.4
22/01:00am 18.0 19.3 17.2 95 0.5 SE 6 7 3 4 1021.1 1021.0 0.0
22/12:30am 17.7 20.1 16.9 95 0.5 CALM 0 0 0 0 1021.4 1021.3 0.0
22/12:00am 17.4 19.0 16.8 96 0.4 SE 4 7 2 4 1021.4 1021.3 0.0
 
Date/Time
EST
Temp
°C
App
Temp
°C
Dew
Point
°C
Rel
Hum
%
Delta-T
°C
Wind Press
QNH
hPa
Press
MSL
hPa
Rain since
9am
mm
Dir  Spd
km/h
Gust
km/h
Spd
kts
Gust
kts
21/11:30pm 17.1 17.5 16.3 95 0.5 SE 9 11 5 6 1021.5 1021.4 0.0
21/11:00pm 17.0 18.3 16.2 95 0.5 SE 4 7 2 4 1021.7 1021.6 0.0
21/10:30pm 17.7 20.0 16.7 94 0.6 CALM 0 0 0 0 1021.8 1021.7 0.0
21/10:00pm 18.1 20.5 17.0 93 0.7 CALM 0 2 0 1 1021.8 1021.7 0.0
21/09:30pm 18.6 19.8 17.3 92 0.8 SE 7 9 4 5 1022.1 1022.0 0.0
21/09:00pm 18.9 20.5 17.0 89 1.1 SE 4 7 2 4 1022.1 1022.0 0.0
21/08:30pm 19.7 20.9 17.3 86 1.5 SE 7 11 4 6 1021.7 1021.6 0.0
21/08:00pm 20.0 21.6 17.8 87 1.4 E 6 7 3 4 1021.6 1021.5 0.0
21/07:30pm 20.4 21.3 17.6 84 1.7 E 9 11 5 6 1021.4 1021.3 0.0
21/07:00pm 20.7 21.4 17.9 84 1.7 E 11 15 6 8 1021.1 1021.0 0.0
21/06:30pm 20.8 20.8 18.0 84 1.7 ENE 15 20 8 11 1021.0 1020.9 0.0
21/06:00pm 20.8 19.8 18.0 84 1.7 ENE 20 28 11 15 1020.6 1020.5 0.0
21/05:30pm 23.8 21.7 14.8 57 5.4 ESE 19 26 10 14 1020.3 1020.2 0.0
21/05:00pm 24.1 22.0 15.1 57 5.4 ESE 20 28 11 15 1020.1 1020.0 0.0
21/04:30pm 24.8 21.5 15.1 54 5.8 E 26 33 14 18 1019.8 1019.7 0.0
21/04:00pm 25.3 22.1 15.3 54 6.0 E 26 32 14 17 1019.6 1019.5 0.0
21/03:30pm 25.7 22.8 16.0 55 5.9 E 26 37 14 20 1019.4 1019.3 0.0
21/03:00pm 25.8 22.6 15.2 52 6.4 ESE 26 39 14 21 1019.4 1019.3 0.0
21/02:30pm 26.0 23.1 17.1 58 5.5 E 28 37 15 20 1019.2 1019.1 0.0
21/02:00pm 25.8 23.3 17.2 59 5.3 E 26 33 14 18 1019.3 1019.2 0.0
21/01:30pm 26.1 23.1 16.9 57 5.7 E 28 37 15 20 1019.4 1019.3 0.0
21/01:00pm 26.4 24.6 18.8 63 4.9 ESE 26 37 14 20 1019.7 1019.6 0.0
21/12:30pm 25.1 22.7 17.3 62 4.9 ESE 26 37 14 20 1020.0 1019.9 0.0
21/12:00pm 25.7 24.4 18.1 63 4.8 ESE 22 35 12 19 1020.6 1020.5 0.0
21/11:30am 26.1 24.8 17.2 58 5.6 ESE 20 33 11 18 1020.8 1020.7 0.0
21/11:00am 25.5 23.0 17.2 60 5.2 SE 26 33 14 18 1021.2 1021.1 0.0
21/10:30am 24.6 22.2 17.3 64 4.5 SE 26 37 14 20 1021.4 1021.3 0.0
21/10:00am 25.1 23.6 17.8 64 4.6 ESE 22 32 12 17 1021.6 1021.5 0.0
21/09:30am 24.5 23.6 17.7 66 4.3 SE 19 30 10 16 1022.0 1021.9 0.0
21/09:00am 23.4 22.9 17.8 71 3.5 SSE 17 20 9 11 1022.0 1021.9 13.4
21/08:30am 22.6 22.4 18.4 77 2.6 S 17 19 9 10 1022.3 1022.2 13.4
21/08:00am 21.1 21.5 18.1 83 1.9 SSE 13 15 7 8 1022.0 1021.9 13.4
21/07:30am 20.1 20.4 17.9 87 1.4 S 13 15 7 8 1022.2 1022.1 13.4
21/07:00am 19.0 19.3 17.8 93 0.7 S 13 17 7 9 1022.1 1022.0 13.4
21/06:30am 18.2 19.0 17.2 94 0.6 S 9 11 5 6 1021.6 1021.5 13.4
21/06:00am 18.6 19.1 17.4 93 0.7 SSW 11 13 6 7 1021.1 1021.0 13.4
21/05:30am 19.1 20.1 17.8 92 0.8 S 9 11 5 6 1020.9 1020.8 13.4
21/05:00am 19.6 20.8 18.3 92 0.8 S 9 11 5 6 1020.6 1020.5 13.4
21/04:30am 19.7 21.3 18.2 91 0.9 S 7 11 4 6 1020.5 1020.4 13.4
21/04:00am 19.8 21.0 18.3 91 0.9 SE 9 11 5 6 1020.5 1020.4 13.4
21/03:30am 19.8 20.7 18.5 92 0.8 SSE 11 15 6 8 1020.4 1020.3 13.4
21/03:00am 19.5 20.3 18.2 92 0.8 S 11 13 6 7 1020.4 1020.3 13.4
21/02:30am 19.7 20.6 18.4 92 0.8 S 11 15 6 8 1020.3 1020.2 13.4
21/02:00am 19.9 21.2 18.4 91 0.9 E 9 11 5 6 1020.9 1020.8 13.4
21/01:30am 20.1 20.8 18.8 92 0.8 SE 13 19 7 10 1021.1 1021.0 13.4
21/01:00am 19.5 21.3 18.7 95 0.5 SSE 7 9 4 5 1021.4 1021.3 13.4
21/12:30am 19.4 20.8 18.6 95 0.5 S 9 11 5 6 1021.6 1021.5 13.4
21/12:00am 19.1 20.3 18.3 95 0.5 S 9 9 5 5 1021.5 1021.4 13.4
 
Date/Time
EST
Temp
°C
App
Temp
°C
Dew
Point
°C
Rel
Hum
%
Delta-T
°C
Wind Press
QNH
hPa
Press
MSL
hPa
Rain since
9am
mm
Dir  Spd
km/h
Gust
km/h
Spd
kts
Gust
kts
20/11:30pm 19.3 20.2 18.3 94 0.6 S 11 13 6 7 1021.5 1021.4 13.2
20/11:00pm 19.7 21.2 18.9 95 0.5 S 9 11 5 6 1021.7 1021.6 13.2
20/10:30pm 19.8 20.5 18.8 94 0.6 SSW 13 17 7 9 1021.9 1021.8 13.2
20/10:00pm 19.7 21.5 18.7 94 0.6 SSE 7 9 4 5 1022.1 1022.0 13.0
20/09:30pm 19.7 22.7 18.5 93 0.7 CALM 0 0 0 0 1022.1 1022.0 12.8
20/09:00pm 19.7 21.1 18.7 94 0.6 SSE 9 13 5 7 1022.2 1022.1 12.0
20/08:30pm 20.1 20.8 18.8 92 0.8 SE 13 19 7 10 1022.3 1022.2 10.6
20/08:22pm 20.3 21.1 19.1 93 0.8 SE 13 19 7 10 1022.4 1022.3 10.2
20/08:00pm 20.6 21.7 19.6 94 0.6 SSE 13 17 7 9 1022.4 1022.3 9.2
20/07:30pm 20.6 21.6 19.4 93 0.8 ESE 13 17 7 9 1021.8 1021.7 9.2
20/07:14pm 20.5 21.4 19.3 93 0.8 ESE 13 17 7 9 1021.9 1021.8 9.2
20/07:13pm 20.5 21.4 19.3 93 0.8 ESE 13 17 7 9 1021.9 1021.8 9.2
20/07:00pm 20.6 20.9 19.6 94 0.6 ESE 17 20 9 11 1021.6 1021.5 9.0
20/06:47pm 21.0 21.7 19.7 92 0.8 E 15 19 8 10 1021.4 1021.3 5.6
20/06:31pm 21.7 22.6 19.3 86 1.5 E 13 19 7 10 1021.1 1021.0 3.6
20/06:30pm 21.8 22.8 19.4 86 1.5 E 13 19 7 10 1021.1 1021.0 3.0

Other formats

Comma delimited format used in spreadsheet applications
http://www.bom.gov.au/fwo/IDQ60801/IDQ60801.94568.axf

JavaScript Object Notation format (JSON) in row-major order
http://www.bom.gov.au/fwo/IDQ60801/IDQ60801.94568.json

Data quality

Most of these data are generated automatically and are frequently updated. Quality checks on data are not normally performed. It is possible for incorrect values to appear. Refer to information at About Latest Weather Observations and please check the disclaimer before using these data.